sensor_id;sensor_type;location;lat;lon;timestamp;P1;durP1;ratioP1;P2;durP2;ratioP2
1350;SDS011;669;50.206;9.998;2022-12-08T00:01:30;11.23;;;8.07;;
1350;SDS011;669;50.206;9.998;2022-12-08T00:04:00;9.60;;;7.60;;
1350;SDS011;669;50.206;9.998;2022-12-08T00:06:29;12.33;;;8.13;;
1350;SDS011;669;50.206;9.998;2022-12-08T00:09:17;10.90;;;7.70;;
1350;SDS011;669;50.206;9.998;2022-12-08T00:11:54;12.80;;;8.37;;
1350;SDS011;669;50.206;9.998;2022-12-08T00:14:23;10.20;;;7.70;;
1350;SDS011;669;50.206;9.998;2022-12-08T00:16:55;9.30;;;7.93;;
1350;SDS011;669;50.206;9.998;2022-12-08T00:19:23;10.30;;;8.60;;
1350;SDS011;669;50.206;9.998;2022-12-08T00:21:52;10.03;;;7.63;;
1350;SDS011;669;50.206;9.998;2022-12-08T00:24:21;10.90;;;7.60;;
1350;SDS011;669;50.206;9.998;2022-12-08T00:26:50;11.17;;;7.63;;
1350;SDS011;669;50.206;9.998;2022-12-08T00:29:18;12.17;;;8.80;;
1350;SDS011;669;50.206;9.998;2022-12-08T00:31:46;10.10;;;8.23;;
1350;SDS011;669;50.206;9.998;2022-12-08T00:34:16;11.43;;;7.77;;
1350;SDS011;669;50.206;9.998;2022-12-08T00:36:44;12.80;;;8.13;;
1350;SDS011;669;50.206;9.998;2022-12-08T00:39:12;18.00;;;9.30;;
1350;SDS011;669;50.206;9.998;2022-12-08T00:41:42;13.67;;;9.40;;
1350;SDS011;669;50.206;9.998;2022-12-08T00:44:28;15.73;;;9.20;;
1350;SDS011;669;50.206;9.998;2022-12-08T00:46:56;13.17;;;9.23;;
1350;SDS011;669;50.206;9.998;2022-12-08T00:49:25;10.63;;;8.20;;
1350;SDS011;669;50.206;9.998;2022-12-08T00:51:53;12.67;;;8.43;;
1350;SDS011;669;50.206;9.998;2022-12-08T00:54:21;14.43;;;10.63;;
1350;SDS011;669;50.206;9.998;2022-12-08T00:56:50;14.20;;;9.97;;
1350;SDS011;669;50.206;9.998;2022-12-08T00:59:18;12.90;;;9.70;;
1350;SDS011;669;50.206;9.998;2022-12-08T01:01:46;15.13;;;9.00;;
1350;SDS011;669;50.206;9.998;2022-12-08T01:04:15;13.60;;;9.57;;
1350;SDS011;669;50.206;9.998;2022-12-08T01:06:46;13.80;;;10.30;;
1350;SDS011;669;50.206;9.998;2022-12-08T01:09:15;15.00;;;10.47;;
1350;SDS011;669;50.206;9.998;2022-12-08T01:11:44;15.37;;;9.70;;
1350;SDS011;669;50.206;9.998;2022-12-08T01:14:13;16.90;;;11.37;;
1350;SDS011;669;50.206;9.998;2022-12-08T01:16:41;14.57;;;10.10;;
1350;SDS011;669;50.206;9.998;2022-12-08T01:19:09;17.13;;;9.70;;
1350;SDS011;669;50.206;9.998;2022-12-08T01:21:38;14.87;;;10.17;;
1350;SDS011;669;50.206;9.998;2022-12-08T01:24:08;14.73;;;11.00;;
1350;SDS011;669;50.206;9.998;2022-12-08T01:26:38;11.73;;;9.23;;
1350;SDS011;669;50.206;9.998;2022-12-08T01:29:06;21.47;;;10.83;;
1350;SDS011;669;50.206;9.998;2022-12-08T01:31:35;15.00;;;10.87;;
1350;SDS011;669;50.206;9.998;2022-12-08T01:34:03;14.50;;;10.10;;
1350;SDS011;669;50.206;9.998;2022-12-08T01:36:32;16.27;;;10.50;;
1350;SDS011;669;50.206;9.998;2022-12-08T01:39:04;18.60;;;10.83;;
1350;SDS011;669;50.206;9.998;2022-12-08T01:41:35;12.60;;;10.20;;
1350;SDS011;669;50.206;9.998;2022-12-08T01:47:06;15.20;;;9.83;;
1350;SDS011;669;50.206;9.998;2022-12-08T01:49:34;15.70;;;10.33;;
1350;SDS011;669;50.206;9.998;2022-12-08T01:52:04;16.17;;;10.57;;
1350;SDS011;669;50.206;9.998;2022-12-08T01:54:41;16.93;;;11.00;;
1350;SDS011;669;50.206;9.998;2022-12-08T01:57:15;14.40;;;10.33;;
1350;SDS011;669;50.206;9.998;2022-12-08T01:59:47;13.97;;;11.03;;
1350;SDS011;669;50.206;9.998;2022-12-08T02:02:20;17.83;;;12.33;;
1350;SDS011;669;50.206;9.998;2022-12-08T02:04:50;18.50;;;10.07;;
1350;SDS011;669;50.206;9.998;2022-12-08T02:07:18;17.40;;;11.03;;
1350;SDS011;669;50.206;9.998;2022-12-08T02:09:48;16.10;;;10.93;;
1350;SDS011;669;50.206;9.998;2022-12-08T02:12:18;15.97;;;11.30;;
1350;SDS011;669;50.206;9.998;2022-12-08T02:14:46;15.80;;;11.33;;
1350;SDS011;669;50.206;9.998;2022-12-08T02:17:16;17.23;;;11.60;;
1350;SDS011;669;50.206;9.998;2022-12-08T02:23:00;16.47;;;11.40;;
1350;SDS011;669;50.206;9.998;2022-12-08T02:25:39;17.07;;;11.27;;
1350;SDS011;669;50.206;9.998;2022-12-08T02:28:24;13.23;;;11.20;;
1350;SDS011;669;50.206;9.998;2022-12-08T02:31:10;19.17;;;11.73;;
1350;SDS011;669;50.206;9.998;2022-12-08T02:34:01;22.03;;;12.70;;
1350;SDS011;669;50.206;9.998;2022-12-08T02:36:38;18.10;;;12.20;;
1350;SDS011;669;50.206;9.998;2022-12-08T02:39:16;15.57;;;11.00;;
1350;SDS011;669;50.206;9.998;2022-12-08T02:41:55;16.57;;;12.20;;
1350;SDS011;669;50.206;9.998;2022-12-08T02:44:32;16.90;;;11.53;;
1350;SDS011;669;50.206;9.998;2022-12-08T02:47:06;17.47;;;11.67;;
1350;SDS011;669;50.206;9.998;2022-12-08T02:49:38;21.70;;;12.10;;
1350;SDS011;669;50.206;9.998;2022-12-08T02:52:06;14.63;;;10.70;;
1350;SDS011;669;50.206;9.998;2022-12-08T02:54:57;17.17;;;11.90;;
1350;SDS011;669;50.206;9.998;2022-12-08T02:57:30;18.93;;;12.30;;
1350;SDS011;669;50.206;9.998;2022-12-08T03:00:07;17.80;;;11.60;;
1350;SDS011;669;50.206;9.998;2022-12-08T03:02:41;16.93;;;11.73;;
1350;SDS011;669;50.206;9.998;2022-12-08T03:05:21;15.53;;;11.70;;
1350;SDS011;669;50.206;9.998;2022-12-08T03:07:59;14.43;;;10.80;;
1350;SDS011;669;50.206;9.998;2022-12-08T03:10:36;19.57;;;12.43;;
1350;SDS011;669;50.206;9.998;2022-12-08T03:13:11;12.87;;;10.70;;
1350;SDS011;669;50.206;9.998;2022-12-08T03:15:42;19.43;;;12.73;;
1350;SDS011;669;50.206;9.998;2022-12-08T03:18:13;19.37;;;12.63;;
1350;SDS011;669;50.206;9.998;2022-12-08T03:20:44;14.93;;;10.77;;
1350;SDS011;669;50.206;9.998;2022-12-08T03:23:13;14.93;;;10.80;;
1350;SDS011;669;50.206;9.998;2022-12-08T03:25:46;14.50;;;10.30;;
1350;SDS011;669;50.206;9.998;2022-12-08T03:28:18;21.17;;;13.33;;
1350;SDS011;669;50.206;9.998;2022-12-08T03:30:46;16.83;;;12.63;;
1350;SDS011;669;50.206;9.998;2022-12-08T03:33:22;22.50;;;12.67;;
1350;SDS011;669;50.206;9.998;2022-12-08T03:35:53;18.30;;;12.43;;
1350;SDS011;669;50.206;9.998;2022-12-08T03:38:23;24.40;;;12.47;;
1350;SDS011;669;50.206;9.998;2022-12-08T03:40:52;14.13;;;10.47;;
1350;SDS011;669;50.206;9.998;2022-12-08T03:43:34;15.80;;;11.03;;
1350;SDS011;669;50.206;9.998;2022-12-08T03:46:02;17.03;;;12.40;;
1350;SDS011;669;50.206;9.998;2022-12-08T03:48:30;21.47;;;12.87;;
1350;SDS011;669;50.206;9.998;2022-12-08T03:50:58;17.33;;;12.47;;
1350;SDS011;669;50.206;9.998;2022-12-08T03:53:26;16.57;;;11.00;;
1350;SDS011;669;50.206;9.998;2022-12-08T03:55:55;16.10;;;12.23;;
1350;SDS011;669;50.206;9.998;2022-12-08T03:58:23;19.43;;;11.70;;
1350;SDS011;669;50.206;9.998;2022-12-08T04:00:52;17.10;;;12.30;;
1350;SDS011;669;50.206;9.998;2022-12-08T04:03:20;15.53;;;11.00;;
1350;SDS011;669;50.206;9.998;2022-12-08T04:05:48;18.33;;;10.70;;
1350;SDS011;669;50.206;9.998;2022-12-08T04:08:16;15.83;;;12.00;;
1350;SDS011;669;50.206;9.998;2022-12-08T04:10:44;18.30;;;11.30;;
1350;SDS011;669;50.206;9.998;2022-12-08T04:13:13;18.43;;;12.33;;
1350;SDS011;669;50.206;9.998;2022-12-08T04:15:43;20.27;;;11.73;;
1350;SDS011;669;50.206;9.998;2022-12-08T04:18:12;23.57;;;12.80;;
1350;SDS011;669;50.206;9.998;2022-12-08T04:20:41;16.53;;;12.20;;
1350;SDS011;669;50.206;9.998;2022-12-08T04:23:11;18.93;;;11.70;;
1350;SDS011;669;50.206;9.998;2022-12-08T04:25:39;17.47;;;12.77;;
1350;SDS011;669;50.206;9.998;2022-12-08T04:28:07;13.93;;;10.60;;
1350;SDS011;669;50.206;9.998;2022-12-08T04:30:36;15.63;;;11.10;;
1350;SDS011;669;50.206;9.998;2022-12-08T04:33:04;16.60;;;10.67;;
1350;SDS011;669;50.206;9.998;2022-12-08T04:35:32;22.50;;;12.57;;
1350;SDS011;669;50.206;9.998;2022-12-08T04:38:00;16.60;;;11.33;;
1350;SDS011;669;50.206;9.998;2022-12-08T04:40:28;16.40;;;11.23;;
1350;SDS011;669;50.206;9.998;2022-12-08T04:42:56;16.50;;;11.00;;
1350;SDS011;669;50.206;9.998;2022-12-08T04:45:24;14.00;;;10.60;;
1350;SDS011;669;50.206;9.998;2022-12-08T04:47:53;15.80;;;11.43;;
1350;SDS011;669;50.206;9.998;2022-12-08T04:50:21;19.33;;;13.47;;
1350;SDS011;669;50.206;9.998;2022-12-08T04:52:49;17.00;;;11.57;;
1350;SDS011;669;50.206;9.998;2022-12-08T04:55:17;21.13;;;12.57;;
1350;SDS011;669;50.206;9.998;2022-12-08T04:57:45;19.27;;;12.47;;
1350;SDS011;669;50.206;9.998;2022-12-08T05:00:13;15.23;;;10.30;;
1350;SDS011;669;50.206;9.998;2022-12-08T05:02:42;15.17;;;11.10;;
1350;SDS011;669;50.206;9.998;2022-12-08T05:05:11;19.20;;;11.93;;
1350;SDS011;669;50.206;9.998;2022-12-08T05:07:39;15.03;;;11.20;;
1350;SDS011;669;50.206;9.998;2022-12-08T05:10:07;21.30;;;12.27;;
1350;SDS011;669;50.206;9.998;2022-12-08T05:12:35;17.07;;;11.00;;
1350;SDS011;669;50.206;9.998;2022-12-08T05:15:03;14.70;;;10.57;;
1350;SDS011;669;50.206;9.998;2022-12-08T05:17:32;17.17;;;11.00;;
1350;SDS011;669;50.206;9.998;2022-12-08T05:20:00;18.93;;;11.50;;
1350;SDS011;669;50.206;9.998;2022-12-08T05:22:30;20.97;;;12.53;;
1350;SDS011;669;50.206;9.998;2022-12-08T05:24:58;17.33;;;12.63;;
1350;SDS011;669;50.206;9.998;2022-12-08T05:27:26;18.77;;;12.37;;
1350;SDS011;669;50.206;9.998;2022-12-08T05:29:54;21.23;;;12.03;;
1350;SDS011;669;50.206;9.998;2022-12-08T05:32:22;19.50;;;13.17;;
1350;SDS011;669;50.206;9.998;2022-12-08T05:34:49;19.83;;;13.10;;
1350;SDS011;669;50.206;9.998;2022-12-08T05:37:17;18.03;;;11.77;;
1350;SDS011;669;50.206;9.998;2022-12-08T05:39:46;19.90;;;12.20;;
1350;SDS011;669;50.206;9.998;2022-12-08T05:42:14;18.30;;;12.43;;
1350;SDS011;669;50.206;9.998;2022-12-08T05:44:49;23.50;;;13.30;;
1350;SDS011;669;50.206;9.998;2022-12-08T05:47:17;21.60;;;14.77;;
1350;SDS011;669;50.206;9.998;2022-12-08T05:49:45;20.70;;;13.47;;
1350;SDS011;669;50.206;9.998;2022-12-08T05:52:13;22.87;;;14.27;;
1350;SDS011;669;50.206;9.998;2022-12-08T05:54:42;15.80;;;10.77;;
1350;SDS011;669;50.206;9.998;2022-12-08T05:57:11;19.80;;;11.83;;
1350;SDS011;669;50.206;9.998;2022-12-08T05:59:39;18.60;;;12.07;;
1350;SDS011;669;50.206;9.998;2022-12-08T06:02:07;17.00;;;12.20;;
1350;SDS011;669;50.206;9.998;2022-12-08T06:04:35;18.80;;;12.30;;
1350;SDS011;669;50.206;9.998;2022-12-08T06:07:03;20.33;;;11.20;;
1350;SDS011;669;50.206;9.998;2022-12-08T06:09:31;15.40;;;11.50;;
1350;SDS011;669;50.206;9.998;2022-12-08T06:11:59;12.80;;;10.00;;
1350;SDS011;669;50.206;9.998;2022-12-08T06:14:28;17.13;;;11.47;;
1350;SDS011;669;50.206;9.998;2022-12-08T06:16:56;16.77;;;11.73;;
1350;SDS011;669;50.206;9.998;2022-12-08T06:19:24;15.07;;;10.27;;
1350;SDS011;669;50.206;9.998;2022-12-08T06:21:52;13.23;;;10.30;;
1350;SDS011;669;50.206;9.998;2022-12-08T06:24:20;13.87;;;10.10;;
1350;SDS011;669;50.206;9.998;2022-12-08T06:26:48;18.03;;;11.03;;
1350;SDS011;669;50.206;9.998;2022-12-08T06:29:16;20.63;;;12.17;;
1350;SDS011;669;50.206;9.998;2022-12-08T06:31:45;15.60;;;10.03;;
1350;SDS011;669;50.206;9.998;2022-12-08T06:34:13;16.33;;;11.40;;
1350;SDS011;669;50.206;9.998;2022-12-08T06:36:41;15.47;;;10.20;;
1350;SDS011;669;50.206;9.998;2022-12-08T06:39:09;20.30;;;11.53;;
1350;SDS011;669;50.206;9.998;2022-12-08T06:41:37;16.80;;;11.00;;
1350;SDS011;669;50.206;9.998;2022-12-08T06:44:19;14.73;;;9.57;;
1350;SDS011;669;50.206;9.998;2022-12-08T06:46:48;14.33;;;10.47;;
1350;SDS011;669;50.206;9.998;2022-12-08T06:49:16;17.30;;;10.43;;
1350;SDS011;669;50.206;9.998;2022-12-08T06:51:44;17.77;;;10.93;;
1350;SDS011;669;50.206;9.998;2022-12-08T06:54:12;14.20;;;11.10;;
1350;SDS011;669;50.206;9.998;2022-12-08T06:56:40;18.40;;;10.47;;
1350;SDS011;669;50.206;9.998;2022-12-08T06:59:08;14.40;;;10.27;;
1350;SDS011;669;50.206;9.998;2022-12-08T07:01:36;14.83;;;9.70;;
1350;SDS011;669;50.206;9.998;2022-12-08T07:04:05;12.20;;;9.30;;
1350;SDS011;669;50.206;9.998;2022-12-08T07:06:33;17.33;;;10.33;;
1350;SDS011;669;50.206;9.998;2022-12-08T07:09:01;13.23;;;8.57;;
1350;SDS011;669;50.206;9.998;2022-12-08T07:11:29;14.80;;;9.50;;
1350;SDS011;669;50.206;9.998;2022-12-08T07:13:57;15.27;;;10.40;;
1350;SDS011;669;50.206;9.998;2022-12-08T07:16:25;13.90;;;9.27;;
1350;SDS011;669;50.206;9.998;2022-12-08T07:18:53;12.77;;;9.70;;
1350;SDS011;669;50.206;9.998;2022-12-08T07:21:22;15.27;;;9.70;;
1350;SDS011;669;50.206;9.998;2022-12-08T07:23:51;15.30;;;9.87;;
1350;SDS011;669;50.206;9.998;2022-12-08T07:26:23;17.50;;;10.70;;
1350;SDS011;669;50.206;9.998;2022-12-08T07:28:52;20.20;;;10.60;;
1350;SDS011;669;50.206;9.998;2022-12-08T07:31:21;16.50;;;10.87;;
1350;SDS011;669;50.206;9.998;2022-12-08T07:33:50;15.90;;;11.00;;
1350;SDS011;669;50.206;9.998;2022-12-08T07:36:19;16.40;;;11.60;;
1350;SDS011;669;50.206;9.998;2022-12-08T07:38:48;20.67;;;10.70;;
1350;SDS011;669;50.206;9.998;2022-12-08T07:41:19;13.60;;;9.53;;
1350;SDS011;669;50.206;9.998;2022-12-08T07:43:49;15.20;;;10.53;;
1350;SDS011;669;50.206;9.998;2022-12-08T07:46:17;15.17;;;10.70;;
1350;SDS011;669;50.206;9.998;2022-12-08T07:48:47;20.93;;;11.33;;
1350;SDS011;669;50.206;9.998;2022-12-08T07:51:15;16.20;;;10.60;;
1350;SDS011;669;50.206;9.998;2022-12-08T07:53:44;17.70;;;12.83;;
1350;SDS011;669;50.206;9.998;2022-12-08T07:56:20;16.13;;;11.77;;
1350;SDS011;669;50.206;9.998;2022-12-08T07:58:49;18.33;;;11.80;;
1350;SDS011;669;50.206;9.998;2022-12-08T08:01:18;15.33;;;11.00;;
1350;SDS011;669;50.206;9.998;2022-12-08T08:03:47;14.80;;;10.73;;
1350;SDS011;669;50.206;9.998;2022-12-08T08:06:15;20.93;;;12.33;;
1350;SDS011;669;50.206;9.998;2022-12-08T08:08:43;14.33;;;9.97;;
1350;SDS011;669;50.206;9.998;2022-12-08T08:11:12;14.20;;;10.17;;
1350;SDS011;669;50.206;9.998;2022-12-08T08:13:48;18.87;;;11.67;;
1350;SDS011;669;50.206;9.998;2022-12-08T08:16:16;14.50;;;9.43;;
1350;SDS011;669;50.206;9.998;2022-12-08T08:18:45;18.63;;;11.27;;
1350;SDS011;669;50.206;9.998;2022-12-08T08:21:14;19.93;;;11.63;;
1350;SDS011;669;50.206;9.998;2022-12-08T08:24:03;15.13;;;10.30;;
1350;SDS011;669;50.206;9.998;2022-12-08T08:26:31;16.57;;;11.17;;
1350;SDS011;669;50.206;9.998;2022-12-08T08:29:01;15.87;;;12.03;;
1350;SDS011;669;50.206;9.998;2022-12-08T08:31:29;21.73;;;11.37;;
1350;SDS011;669;50.206;9.998;2022-12-08T08:33:57;16.93;;;12.63;;
1350;SDS011;669;50.206;9.998;2022-12-08T08:36:30;16.97;;;10.80;;
1350;SDS011;669;50.206;9.998;2022-12-08T08:38:58;18.30;;;11.60;;
1350;SDS011;669;50.206;9.998;2022-12-08T08:41:26;18.27;;;12.30;;
1350;SDS011;669;50.206;9.998;2022-12-08T08:43:54;18.07;;;10.67;;
1350;SDS011;669;50.206;9.998;2022-12-08T08:46:23;16.50;;;10.80;;
1350;SDS011;669;50.206;9.998;2022-12-08T08:48:51;19.07;;;12.93;;
1350;SDS011;669;50.206;9.998;2022-12-08T08:51:19;14.20;;;10.40;;
1350;SDS011;669;50.206;9.998;2022-12-08T08:53:47;17.50;;;11.10;;
1350;SDS011;669;50.206;9.998;2022-12-08T08:56:15;15.67;;;10.93;;
1350;SDS011;669;50.206;9.998;2022-12-08T08:58:45;17.13;;;11.03;;
1350;SDS011;669;50.206;9.998;2022-12-08T09:01:15;14.33;;;10.60;;
1350;SDS011;669;50.206;9.998;2022-12-08T09:03:45;16.63;;;11.30;;
1350;SDS011;669;50.206;9.998;2022-12-08T09:06:13;18.17;;;10.10;;
1350;SDS011;669;50.206;9.998;2022-12-08T09:08:42;16.03;;;10.40;;
1350;SDS011;669;50.206;9.998;2022-12-08T09:11:10;18.17;;;11.73;;
1350;SDS011;669;50.206;9.998;2022-12-08T09:13:39;17.13;;;9.70;;
1350;SDS011;669;50.206;9.998;2022-12-08T09:16:07;11.23;;;8.67;;
1350;SDS011;669;50.206;9.998;2022-12-08T09:18:35;13.17;;;9.97;;
1350;SDS011;669;50.206;9.998;2022-12-08T09:21:05;12.63;;;9.57;;
1350;SDS011;669;50.206;9.998;2022-12-08T09:23:34;14.03;;;8.93;;
1350;SDS011;669;50.206;9.998;2022-12-08T09:26:02;15.23;;;11.83;;
1350;SDS011;669;50.206;9.998;2022-12-08T09:28:30;11.50;;;9.17;;
1350;SDS011;669;50.206;9.998;2022-12-08T09:30:58;15.00;;;11.43;;
1350;SDS011;669;50.206;9.998;2022-12-08T09:33:26;10.53;;;8.77;;
1350;SDS011;669;50.206;9.998;2022-12-08T09:35:54;12.10;;;9.00;;
1350;SDS011;669;50.206;9.998;2022-12-08T09:38:24;16.27;;;10.60;;
1350;SDS011;669;50.206;9.998;2022-12-08T09:40:52;11.60;;;8.50;;
1350;SDS011;669;50.206;9.998;2022-12-08T09:43:24;14.87;;;10.03;;
1350;SDS011;669;50.206;9.998;2022-12-08T09:46:08;9.90;;;7.97;;
1350;SDS011;669;50.206;9.998;2022-12-08T09:48:40;14.10;;;9.80;;
1350;SDS011;669;50.206;9.998;2022-12-08T09:51:12;12.17;;;9.20;;
1350;SDS011;669;50.206;9.998;2022-12-08T09:53:44;11.47;;;8.43;;
1350;SDS011;669;50.206;9.998;2022-12-08T09:56:15;9.73;;;7.60;;
1350;SDS011;669;50.206;9.998;2022-12-08T09:58:46;9.63;;;7.97;;
1350;SDS011;669;50.206;9.998;2022-12-08T10:01:18;11.87;;;6.83;;
1350;SDS011;669;50.206;9.998;2022-12-08T10:03:48;14.83;;;9.03;;
1350;SDS011;669;50.206;9.998;2022-12-08T10:06:18;11.40;;;8.50;;
1350;SDS011;669;50.206;9.998;2022-12-08T10:08:55;11.43;;;7.40;;
1350;SDS011;669;50.206;9.998;2022-12-08T10:11:38;11.70;;;7.43;;
1350;SDS011;669;50.206;9.998;2022-12-08T10:14:15;13.13;;;8.10;;
1350;SDS011;669;50.206;9.998;2022-12-08T10:16:51;9.63;;;7.57;;
1350;SDS011;669;50.206;9.998;2022-12-08T10:19:24;9.23;;;6.90;;
1350;SDS011;669;50.206;9.998;2022-12-08T10:21:54;10.40;;;7.87;;
1350;SDS011;669;50.206;9.998;2022-12-08T10:24:25;8.57;;;6.90;;
1350;SDS011;669;50.206;9.998;2022-12-08T10:26:59;9.60;;;7.70;;
1350;SDS011;669;50.206;9.998;2022-12-08T10:29:28;10.73;;;7.33;;
1350;SDS011;669;50.206;9.998;2022-12-08T10:31:56;7.90;;;6.90;;
1350;SDS011;669;50.206;9.998;2022-12-08T10:34:25;7.67;;;6.67;;
1350;SDS011;669;50.206;9.998;2022-12-08T10:36:54;8.97;;;6.13;;
1350;SDS011;669;50.206;9.998;2022-12-08T10:39:31;7.80;;;6.10;;
1350;SDS011;669;50.206;9.998;2022-12-08T10:42:06;7.83;;;6.40;;
1350;SDS011;669;50.206;9.998;2022-12-08T10:44:37;8.97;;;6.27;;
1350;SDS011;669;50.206;9.998;2022-12-08T10:47:17;6.47;;;5.47;;
1350;SDS011;669;50.206;9.998;2022-12-08T10:49:49;7.43;;;5.97;;
1350;SDS011;669;50.206;9.998;2022-12-08T10:52:43;8.67;;;6.47;;
1350;SDS011;669;50.206;9.998;2022-12-08T10:55:17;7.20;;;5.37;;
1350;SDS011;669;50.206;9.998;2022-12-08T10:57:46;7.90;;;7.03;;
1350;SDS011;669;50.206;9.998;2022-12-08T11:00:16;6.10;;;5.30;;
1350;SDS011;669;50.206;9.998;2022-12-08T11:02:50;8.00;;;6.67;;
1350;SDS011;669;50.206;9.998;2022-12-08T11:05:21;8.27;;;5.50;;
1350;SDS011;669;50.206;9.998;2022-12-08T11:07:53;7.30;;;5.37;;
1350;SDS011;669;50.206;9.998;2022-12-08T11:10:28;8.47;;;6.87;;
1350;SDS011;669;50.206;9.998;2022-12-08T11:13:00;5.80;;;4.80;;
1350;SDS011;669;50.206;9.998;2022-12-08T11:15:32;6.10;;;5.30;;
1350;SDS011;669;50.206;9.998;2022-12-08T11:18:08;7.60;;;5.43;;
1350;SDS011;669;50.206;9.998;2022-12-08T11:20:55;6.73;;;5.37;;
1350;SDS011;669;50.206;9.998;2022-12-08T11:23:25;10.10;;;6.03;;
1350;SDS011;669;50.206;9.998;2022-12-08T11:25:56;5.90;;;5.33;;
1350;SDS011;669;50.206;9.998;2022-12-08T11:28:30;9.33;;;5.67;;
1350;SDS011;669;50.206;9.998;2022-12-08T11:30:59;6.10;;;5.27;;
1350;SDS011;669;50.206;9.998;2022-12-08T11:33:33;6.80;;;5.60;;
1350;SDS011;669;50.206;9.998;2022-12-08T11:36:01;5.30;;;4.80;;
1350;SDS011;669;50.206;9.998;2022-12-08T11:38:32;6.10;;;4.50;;
1350;SDS011;669;50.206;9.998;2022-12-08T11:41:04;7.40;;;5.17;;
1350;SDS011;669;50.206;9.998;2022-12-08T11:43:43;4.97;;;4.57;;
1350;SDS011;669;50.206;9.998;2022-12-08T11:46:18;8.20;;;6.20;;
1350;SDS011;669;50.206;9.998;2022-12-08T11:48:49;5.70;;;5.00;;
1350;SDS011;669;50.206;9.998;2022-12-08T11:51:21;4.60;;;3.90;;
1350;SDS011;669;50.206;9.998;2022-12-08T11:54:02;6.07;;;4.43;;
1350;SDS011;669;50.206;9.998;2022-12-08T11:56:39;7.47;;;4.93;;
1350;SDS011;669;50.206;9.998;2022-12-08T11:59:12;5.57;;;4.97;;
1350;SDS011;669;50.206;9.998;2022-12-08T12:01:45;5.57;;;4.73;;
1350;SDS011;669;50.206;9.998;2022-12-08T12:04:16;7.27;;;4.70;;
1350;SDS011;669;50.206;9.998;2022-12-08T12:06:53;7.10;;;5.40;;
1350;SDS011;669;50.206;9.998;2022-12-08T12:09:43;5.80;;;5.20;;
1350;SDS011;669;50.206;9.998;2022-12-08T12:12:27;5.97;;;4.23;;
1350;SDS011;669;50.206;9.998;2022-12-08T12:18:21;5.93;;;4.77;;
1350;SDS011;669;50.206;9.998;2022-12-08T12:20:54;6.80;;;5.70;;
1350;SDS011;669;50.206;9.998;2022-12-08T12:23:27;5.40;;;4.40;;
1350;SDS011;669;50.206;9.998;2022-12-08T12:26:03;5.93;;;5.20;;
1350;SDS011;669;50.206;9.998;2022-12-08T12:28:38;6.40;;;4.40;;
1350;SDS011;669;50.206;9.998;2022-12-08T12:31:10;5.10;;;3.97;;
1350;SDS011;669;50.206;9.998;2022-12-08T12:33:41;7.50;;;5.60;;
1350;SDS011;669;50.206;9.998;2022-12-08T12:36:10;7.50;;;5.17;;
1350;SDS011;669;50.206;9.998;2022-12-08T12:38:42;6.37;;;5.27;;
1350;SDS011;669;50.206;9.998;2022-12-08T12:41:33;6.70;;;5.00;;
1350;SDS011;669;50.206;9.998;2022-12-08T12:44:20;6.50;;;5.10;;
1350;SDS011;669;50.206;9.998;2022-12-08T12:47:04;5.87;;;5.20;;
1350;SDS011;669;50.206;9.998;2022-12-08T12:49:49;5.33;;;3.90;;
1350;SDS011;669;50.206;9.998;2022-12-08T12:52:38;7.27;;;5.50;;
1350;SDS011;669;50.206;9.998;2022-12-08T12:58:36;7.37;;;5.40;;
1350;SDS011;669;50.206;9.998;2022-12-08T13:04:05;5.67;;;4.97;;
1350;SDS011;669;50.206;9.998;2022-12-08T13:06:37;7.53;;;4.57;;
1350;SDS011;669;50.206;9.998;2022-12-08T13:09:16;6.73;;;4.37;;
1350;SDS011;669;50.206;9.998;2022-12-08T13:11:47;5.57;;;4.50;;
1350;SDS011;669;50.206;9.998;2022-12-08T13:14:27;5.87;;;4.73;;
1350;SDS011;669;50.206;9.998;2022-12-08T13:17:03;5.80;;;4.60;;
1350;SDS011;669;50.206;9.998;2022-12-08T13:19:36;7.67;;;4.73;;
1350;SDS011;669;50.206;9.998;2022-12-08T13:28:18;5.73;;;5.23;;
1350;SDS011;669;50.206;9.998;2022-12-08T13:30:49;7.83;;;4.93;;
1350;SDS011;669;50.206;9.998;2022-12-08T13:33:23;5.43;;;4.90;;
1350;SDS011;669;50.206;9.998;2022-12-08T13:35:59;6.80;;;5.30;;
1350;SDS011;669;50.206;9.998;2022-12-08T13:38:32;5.80;;;4.30;;
1350;SDS011;669;50.206;9.998;2022-12-08T13:41:05;9.17;;;6.73;;
1350;SDS011;669;50.206;9.998;2022-12-08T13:43:40;9.20;;;5.37;;
1350;SDS011;669;50.206;9.998;2022-12-08T13:46:35;6.67;;;5.43;;
1350;SDS011;669;50.206;9.998;2022-12-08T13:49:29;5.47;;;4.83;;
1350;SDS011;669;50.206;9.998;2022-12-08T13:52:25;6.00;;;4.57;;
1350;SDS011;669;50.206;9.998;2022-12-08T13:55:20;6.07;;;4.13;;
1350;SDS011;669;50.206;9.998;2022-12-08T13:58:17;4.90;;;4.43;;
1350;SDS011;669;50.206;9.998;2022-12-08T14:00:53;5.40;;;4.87;;
1350;SDS011;669;50.206;9.998;2022-12-08T14:03:26;4.67;;;4.20;;
1350;SDS011;669;50.206;9.998;2022-12-08T14:05:56;8.68;;;5.25;;
1350;SDS011;669;50.206;9.998;2022-12-08T14:08:40;6.73;;;5.17;;
1350;SDS011;669;50.206;9.998;2022-12-08T14:11:31;4.90;;;4.20;;
1350;SDS011;669;50.206;9.998;2022-12-08T14:14:02;5.37;;;4.40;;
1350;SDS011;669;50.206;9.998;2022-12-08T14:16:34;5.87;;;5.27;;
1350;SDS011;669;50.206;9.998;2022-12-08T14:19:05;5.17;;;4.67;;
1350;SDS011;669;50.206;9.998;2022-12-08T14:21:45;10.50;;;4.67;;
1350;SDS011;669;50.206;9.998;2022-12-08T14:24:14;4.93;;;4.33;;
1350;SDS011;669;50.206;9.998;2022-12-08T14:26:42;8.60;;;5.17;;
1350;SDS011;669;50.206;9.998;2022-12-08T14:29:14;4.20;;;3.83;;
1350;SDS011;669;50.206;9.998;2022-12-08T14:31:59;7.10;;;4.30;;
1350;SDS011;669;50.206;9.998;2022-12-08T14:34:27;7.53;;;5.53;;
1350;SDS011;669;50.206;9.998;2022-12-08T14:36:56;4.83;;;4.33;;
1350;SDS011;669;50.206;9.998;2022-12-08T14:39:25;7.50;;;5.63;;
1350;SDS011;669;50.206;9.998;2022-12-08T14:42:02;6.53;;;5.47;;
1350;SDS011;669;50.206;9.998;2022-12-08T14:44:33;21.33;;;14.47;;
1350;SDS011;669;50.206;9.998;2022-12-08T14:47:05;8.60;;;6.40;;
1350;SDS011;669;50.206;9.998;2022-12-08T14:49:36;9.43;;;7.63;;
1350;SDS011;669;50.206;9.998;2022-12-08T14:52:08;10.00;;;8.13;;
1350;SDS011;669;50.206;9.998;2022-12-08T14:54:37;8.03;;;5.63;;
1350;SDS011;669;50.206;9.998;2022-12-08T14:57:08;7.43;;;6.03;;
1350;SDS011;669;50.206;9.998;2022-12-08T14:59:39;8.57;;;6.37;;
1350;SDS011;669;50.206;9.998;2022-12-08T15:02:11;10.90;;;7.83;;
1350;SDS011;669;50.206;9.998;2022-12-08T15:04:53;8.67;;;6.13;;
1350;SDS011;669;50.206;9.998;2022-12-08T15:07:26;11.43;;;9.13;;
1350;SDS011;669;50.206;9.998;2022-12-08T15:15:57;7.93;;;5.70;;
1350;SDS011;669;50.206;9.998;2022-12-08T15:18:28;19.00;;;9.83;;
1350;SDS011;669;50.206;9.998;2022-12-08T15:21:01;11.43;;;6.60;;
1350;SDS011;669;50.206;9.998;2022-12-08T15:23:35;13.30;;;7.80;;
1350;SDS011;669;50.206;9.998;2022-12-08T15:26:10;12.40;;;7.40;;
1350;SDS011;669;50.206;9.998;2022-12-08T15:28:46;9.33;;;7.20;;
1350;SDS011;669;50.206;9.998;2022-12-08T15:31:14;8.77;;;5.73;;
1350;SDS011;669;50.206;9.998;2022-12-08T15:33:43;8.40;;;5.90;;
1350;SDS011;669;50.206;9.998;2022-12-08T15:36:11;15.50;;;9.07;;
1350;SDS011;669;50.206;9.998;2022-12-08T15:38:41;7.03;;;5.23;;
1350;SDS011;669;50.206;9.998;2022-12-08T15:41:09;7.63;;;5.87;;
1350;SDS011;669;50.206;9.998;2022-12-08T15:43:40;5.27;;;4.77;;
1350;SDS011;669;50.206;9.998;2022-12-08T15:46:08;7.30;;;4.90;;
1350;SDS011;669;50.206;9.998;2022-12-08T15:48:36;9.80;;;4.80;;
1350;SDS011;669;50.206;9.998;2022-12-08T15:51:04;6.50;;;5.00;;
1350;SDS011;669;50.206;9.998;2022-12-08T15:53:32;4.83;;;4.07;;
1350;SDS011;669;50.206;9.998;2022-12-08T15:56:02;5.50;;;3.90;;
1350;SDS011;669;50.206;9.998;2022-12-08T15:58:53;5.63;;;4.57;;
1350;SDS011;669;50.206;9.998;2022-12-08T16:01:23;5.70;;;4.50;;
1350;SDS011;669;50.206;9.998;2022-12-08T16:03:51;5.40;;;4.87;;
1350;SDS011;669;50.206;9.998;2022-12-08T16:06:39;8.87;;;4.10;;
1350;SDS011;669;50.206;9.998;2022-12-08T16:09:29;5.27;;;4.13;;